Latest Weather Observations for Wilsons Promontory

IDV60801

Issued at 5:05 am EST Saturday 19 April 2014 (issued every 30 minutes, with the page automatically refreshed every 10 minutes)

About weather observations | Map of weather stations | Latest weather observations for VIC | Other Formats
Station Details ID: 085096 Name: WILSONS PROMONTORY LIGHTHOUSE Lat: -39.13 Lon: 146.42 Height: 95.0 m
Data from the previous 72 hours. | See also: Recent months at Wilsons Promontory
Date/Time
EST
Temp
°C
App
Temp
°C
Dew
Point
Rel
Hum
%
Delta-T
°C
Wind Press
QNH
hPa
Press
MSL
hPa
Rain
since 9 am
mm
Dir
 
Spd
km/h
Gust
km/h
Spd
kts
Gust
kts
19/05:00am 12.9 0.8 6.3 64 3.1 SW 59 72 32 39 1015.1 - 2.6
19/04:30am 12.4 3.2 7.9 74 2.2 SW 46 76 25 41 1014.6 - 2.6
19/04:23am 13.0 4.4 8.3 73 2.3 SW 43 70 23 38 1015.4 - 2.6
19/04:09am 12.4 6.2 7.7 73 2.3 SW 30 50 16 27 1015.5 - 2.6
19/04:00am 12.1 7.8 7.8 75 2.1 SSE 20 46 11 25 1015.1 - 2.6
19/03:37am 13.2 6.3 7.4 68 2.8 SW 33 61 18 33 1015.0 - 2.6
19/03:30am 13.0 2.0 6.8 66 3.0 SW 54 65 29 35 1015.4 - 2.6
19/03:17am 12.4 4.0 7.5 72 2.4 SW 41 80 22 43 1015.0 - 2.6
19/03:11am 13.2 1.3 8.5 73 2.4 SW 61 80 33 43 1014.7 - 2.6
19/03:00am 13.3 1.8 6.9 65 3.1 SW 57 67 31 36 1015.3 1015.2 2.6
19/02:37am 12.8 4.2 8.1 73 2.3 SSW 43 78 23 42 1015.0 - 2.6
19/02:35am 12.7 4.0 7.6 71 2.5 SSW 43 80 23 43 1014.6 - 2.6
19/02:34am 12.6 5.3 7.3 70 2.6 E 35 80 19 43 1014.4 - 2.6
19/02:30am 12.8 0.7 7.9 72 2.4 SW 61 80 33 43 1014.7 - 2.6
19/02:20am 13.3 2.4 7.1 66 3.0 WSW 54 72 29 39 1015.6 - 2.6
19/02:15am 13.2 2.6 8.5 73 2.4 SW 54 76 29 41 1015.8 - 2.6
19/02:13am 12.5 5.8 8.2 75 2.1 W 33 76 18 41 1016.3 - 2.6
19/02:12am 12.3 6.1 7.8 74 2.2 W 30 76 16 41 1016.4 - 2.6
19/02:08am 12.5 1.4 8.0 74 2.2 W 56 76 30 41 1015.7 - 2.6
19/02:07am 12.6 0.9 7.9 73 2.3 W 59 76 32 41 1015.7 - 2.6
19/02:02am 13.6 3.3 8.0 69 2.8 SW 52 70 28 38 1015.3 - 2.6
19/02:00am 13.4 3.0 7.8 69 2.8 SW 52 67 28 36 1015.5 - 2.6
19/01:30am 13.3 2.5 7.5 68 2.9 SW 54 67 29 36 1015.8 - 2.6
19/01:13am 13.5 2.9 8.4 71 2.6 SW 54 72 29 39 1015.6 - 2.6
19/01:10am 13.5 2.5 8.4 71 2.6 SW 56 69 30 37 1015.5 - 2.6
19/01:04am 13.2 7.5 8.3 72 2.4 SSW 28 46 15 25 1015.9 - 2.6
19/01:00am 13.2 9.3 8.5 73 2.4 NW 19 39 10 21 1015.9 - 2.6
19/12:49am 13.3 7.8 7.7 69 2.8 SE 26 69 14 37 1015.6 - 2.6
19/12:30am 13.5 2.3 7.7 68 2.9 SW 56 78 30 42 1015.3 - 2.6
19/12:28am 13.6 2.3 8.0 69 2.8 SW 57 78 31 42 1015.5 - 2.6
19/12:27am 13.4 0.9 7.8 69 2.8 SW 63 78 34 42 1015.4 - 2.6
19/12:21am 13.2 5.1 8.7 74 2.3 SW 41 65 22 35 1015.6 - 2.6
19/12:20am 13.1 5.8 8.8 75 2.2 SW 37 54 20 29 1015.6 - 2.6
19/12:15am 13.1 7.8 8.6 74 2.3 NW 26 63 14 34 1015.1 - 2.6
19/12:06am 14.0 6.2 8.4 69 2.8 SSW 39 78 21 42 1015.2 - 2.6
19/12:00am 14.0 0.9 6.8 62 3.5 SW 65 80 35 43 1015.0 1014.9 2.6
 
Date/Time
EST
Temp
°C
App
Temp
°C
Dew
Point
Rel
Hum
%
Delta-T
°C
Wind Press
QNH
hPa
Press
MSL
hPa
Rain
since 9 am
mm
Dir
 
Spd
km/h
Gust
km/h
Spd
kts
Gust
kts
18/11:30pm 14.0 0.4 7.8 66 3.1 WSW 69 87 37 47 1014.9 - 2.6
18/11:29pm 14.1 0.5 7.9 66 3.1 WSW 69 87 37 47 1014.8 - 2.6
18/11:00pm 14.3 1.8 6.2 58 3.9 WSW 61 78 33 42 1015.2 - 2.6
18/10:43pm 14.0 1.1 7.8 66 3.1 WSW 65 85 35 46 1015.8 - 2.6
18/10:30pm 14.2 0.2 6.1 58 3.9 WSW 69 85 37 46 1015.0 - 2.6
18/10:23pm 14.3 0.1 6.2 58 3.9 WSW 70 89 38 48 1015.5 - 2.6
18/10:00pm 14.4 0.8 7.7 64 3.3 WSW 69 78 37 42 1015.2 - 2.6
18/09:54pm 14.1 1.4 8.3 68 2.9 WSW 65 76 35 41 1015.5 - 2.6
18/09:42pm 13.7 6.0 8.7 72 2.5 W 39 59 21 32 1016.0 - 2.6
18/09:30pm 13.5 5.4 8.6 72 2.5 W 41 57 22 31 1016.3 - 2.6
18/09:00pm 13.3 3.4 8.2 71 2.5 W 50 69 27 37 1015.2 1015.1 2.6
18/08:31pm 13.5 2.4 8.1 70 2.7 W 56 83 30 45 1015.7 - 2.6
18/08:30pm 13.5 2.2 8.1 70 2.7 W 57 91 31 49 1015.6 - 2.6
18/08:27pm 13.8 2.1 8.0 68 2.9 W 59 91 32 49 1015.3 - 2.6
18/08:00pm 14.2 -1.2 7.7 65 3.2 SW 78 87 42 47 1014.4 - 2.6
18/07:30pm 14.7 0.6 8.0 64 3.4 WSW 72 85 39 46 1014.4 - 2.6
18/07:00pm 14.2 0.4 7.9 66 3.1 SW 70 82 38 44 1014.4 - 2.6
18/06:59pm 14.2 0.7 8.4 68 2.9 SW 69 76 37 41 1014.5 - 2.6
18/06:42pm 13.4 4.3 8.3 71 2.6 W 46 65 25 35 1015.1 - 2.6
18/06:30pm 13.7 4.4 7.7 67 3.0 W 46 65 25 35 1014.8 - 2.6
18/06:23pm 13.8 3.4 7.8 67 3.0 WSW 52 83 28 45 1014.5 - 2.6
18/06:16pm 13.5 -0.5 8.6 72 2.5 WSW 72 91 39 49 1013.7 - 2.6
18/06:01pm 13.5 -2.6 8.4 71 2.6 SW 83 95 45 51 1013.3 - 2.6
18/06:00pm 13.5 1.5 8.4 71 2.6 W 61 93 33 50 1013.8 1013.7 2.6
18/05:30pm 14.7 2.3 8.0 64 3.4 WSW 63 85 34 46 1013.3 - 2.4
18/05:19pm 14.7 2.1 7.3 61 3.7 WSW 63 83 34 45 1013.3 - 2.4
18/05:17pm 14.8 0.6 7.8 63 3.5 WSW 72 83 39 45 1013.0 - 2.4
18/05:14pm 14.8 6.2 8.3 65 3.3 W 43 67 23 36 1013.8 - 2.4
18/05:11pm 14.4 5.5 7.7 64 3.3 W 44 74 24 40 1013.7 - 2.4
18/05:00pm 14.6 0.9 7.4 62 3.6 WSW 69 93 37 50 1013.2 - 2.4
18/04:33pm 14.9 0.3 7.5 61 3.7 WSW 74 93 40 50 1012.2 - 2.4
18/04:30pm 14.9 0.5 8.6 66 3.2 WSW 74 89 40 48 1012.4 - 2.4
18/04:00pm 14.9 0.9 8.6 66 3.2 WSW 72 95 39 51 1011.9 - 2.4
18/03:30pm 15.2 1.7 8.4 64 3.4 WSW 69 89 37 48 1011.7 - 2.4
18/03:16pm 15.3 1.3 8.5 64 3.5 WSW 72 91 39 49 1011.7 - 2.4
18/03:08pm 15.2 -1.1 7.7 61 3.8 WSW 83 93 45 50 1011.3 - 2.4
18/03:03pm 15.5 3.8 9.2 66 3.3 W 61 80 33 43 1011.9 - 2.4
18/03:00pm 15.2 2.8 8.0 62 3.6 W 63 80 34 43 1011.7 1011.6 2.4
18/02:37pm 15.5 2.0 9.0 65 3.3 WSW 70 89 38 48 1011.6 - 2.4
18/02:30pm 15.4 0.3 8.9 65 3.3 WSW 78 91 42 49 1011.2 - 2.4
18/02:17pm 15.4 0.2 8.2 62 3.6 WSW 78 96 42 52 1011.0 - 2.4
18/02:00pm 15.4 -0.8 7.2 58 4.1 WSW 82 95 44 51 1010.4 - 2.4
18/01:39pm 15.2 -1.7 8.4 64 3.4 WSW 87 95 47 51 1010.4 - 2.4
18/01:36pm 15.1 2.5 9.0 67 3.1 W 65 98 35 53 1010.7 - 2.4
18/01:30pm 14.9 -1.7 8.2 64 3.4 WSW 85 98 46 53 1010.4 - 2.4
18/01:00pm 14.7 -0.1 9.9 73 2.5 WSW 78 91 42 49 1010.3 - 2.4
18/12:30pm 14.1 -0.2 10.3 78 2.0 WSW 76 87 41 47 1010.7 - 2.4
18/12:01pm 14.1 1.4 12.0 87 1.1 SW 70 91 38 49 1010.2 - 2.4
18/12:00pm 14.5 2.0 12.5 88 1.1 SW 70 82 38 44 1010.6 1010.5 2.4
18/11:47am 14.1 3.5 12.1 88 1.1 SW 59 89 32 48 1010.2 - 2.4
18/11:34am 13.9 -1.2 12.1 89 1.0 WSW 83 93 45 50 1010.0 - 2.4
18/11:30am 14.2 3.0 12.4 89 1.0 WSW 63 89 34 48 1010.6 - 2.4
18/11:11am 14.5 4.2 10.9 79 1.9 W 56 87 30 47 1010.6 - 1.0
18/11:08am 16.1 6.2 12.5 79 2.0 W 56 72 30 39 1010.8 - 0.4
18/11:00am 16.8 11.4 12.7 77 2.3 W 33 56 18 30 1011.0 - 0.0
18/10:30am 16.5 12.1 12.8 79 2.1 W 28 50 15 27 1011.5 - 0.0
18/10:00am 16.8 11.8 12.3 75 2.5 WNW 30 52 16 28 1011.8 - 0.0
18/09:38am 16.4 9.6 12.0 75 2.4 WNW 39 57 21 31 1011.9 - 0.0
18/09:30am 16.3 13.2 11.7 74 2.5 NW 19 44 10 24 1012.0 - 0.0
18/09:00am 16.9 12.5 11.6 71 2.9 NW 26 46 14 25 1012.3 1012.2 0.0
18/08:30am 16.4 12.1 12.0 75 2.4 NW 26 46 14 25 1012.4 - 0.0
18/08:00am 15.8 10.2 12.2 79 2.0 NW 33 54 18 29 1012.7 - 0.0
18/07:30am 15.6 10.4 12.9 84 1.5 NW 32 52 17 28 1012.4 - 0.0
18/07:00am 15.5 10.2 13.0 85 1.4 NW 33 52 18 28 1012.6 - 0.0
18/06:30am 15.6 10.8 12.9 84 1.5 NW 30 48 16 26 1012.4 - 0.0
18/06:00am 15.8 9.8 12.2 79 2.0 NW 35 54 19 29 1012.5 1012.4 0.0
18/05:30am 15.9 10.2 11.1 73 2.6 NW 32 54 17 29 1012.6 - 0.0
18/05:00am 15.8 9.4 10.6 71 2.8 NW 35 59 19 32 1012.9 - 0.0
18/04:30am 16.8 11.3 9.2 61 4.0 NW 28 50 15 27 1013.3 - 0.0
18/04:00am 17.8 11.2 8.6 55 4.8 NNW 33 52 18 28 1013.0 - 0.0
18/03:52am 17.9 11.4 9.0 56 4.6 NNW 33 52 18 28 1013.0 - 0.0
18/03:30am 17.5 11.8 9.9 61 4.0 NNW 30 39 16 21 1013.2 - 0.0
18/03:00am 17.3 13.2 11.3 68 3.3 N 24 32 13 17 1013.5 1013.4 0.0
18/02:30am 15.7 12.1 11.7 77 2.2 NNE 22 28 12 15 1014.0 - 0.0
18/02:00am 15.7 12.1 11.9 78 2.1 NNE 22 28 12 15 1014.4 - 0.0
18/01:30am 15.6 11.5 11.6 77 2.2 NNE 24 30 13 16 1015.1 - 0.0
18/01:00am 15.9 11.3 11.1 73 2.6 NNE 26 30 14 16 1015.5 - 0.0
18/12:30am 15.9 12.2 10.0 68 3.1 NNE 20 26 11 14 1016.0 - 0.0
18/12:00am 15.9 12.4 10.2 69 3.0 NNE 19 26 10 14 1016.6 1016.5 0.0
 
Date/Time
EST
Temp
°C
App
Temp
°C
Dew
Point
Rel
Hum
%
Delta-T
°C
Wind Press
QNH
hPa
Press
MSL
hPa
Rain
since 9 am
mm
Dir
 
Spd
km/h
Gust
km/h
Spd
kts
Gust
kts
17/11:30pm 15.8 12.3 10.1 69 3.0 NNE 19 20 10 11 1017.0 - 0.0
17/11:00pm 15.9 12.3 9.8 67 3.2 N 19 20 10 11 1017.5 - 0.0
17/10:30pm 15.8 12.3 10.3 70 2.9 N 19 22 10 12 1017.8 - 0.0
17/10:00pm 15.6 12.3 9.7 68 3.1 N 17 20 9 11 1018.1 - 0.0
17/09:30pm 15.8 11.8 8.3 61 3.8 N 19 22 10 12 1018.1 - 0.0
17/09:00pm 15.5 11.6 8.5 63 3.6 N 19 22 10 12 1018.0 1017.9 0.0
17/08:30pm 15.4 11.8 9.7 69 3.0 N 19 20 10 11 1018.1 - 0.0
17/08:00pm 15.3 12.3 11.9 80 1.9 NNE 19 20 10 11 1018.2 - 0.0
17/07:30pm 15.5 13.4 12.4 82 1.7 N 15 17 8 9 1018.3 - 0.0
17/07:00pm 15.6 13.1 12.2 80 1.9 NNE 17 22 9 12 1018.4 - 0.0
17/06:30pm 15.6 13.0 12.0 79 2.0 NNE 17 20 9 11 1018.4 - 0.0
17/06:00pm 15.5 13.2 11.9 79 2.0 NNE 15 17 8 9 1018.3 1018.2 0.0
17/05:30pm 15.7 13.8 11.7 77 2.2 NNE 13 15 7 8 1018.4 - 0.0
17/05:00pm 16.2 15.1 11.8 75 2.4 NNE 9 9 5 5 1018.5 - 0.0
17/04:30pm 16.8 16.1 11.9 73 2.7 NNE 7 9 4 5 1018.6 - 0.0
17/04:00pm 16.8 16.1 11.5 71 2.9 ENE 6 7 3 4 1018.7 - 0.0
17/03:30pm 16.9 17.0 11.4 70 3.0 SSE 2 6 1 3 1018.9 - 0.0
17/03:00pm 17.3 16.7 11.8 70 3.0 SW 6 7 3 4 1019.0 1018.9 0.0
17/02:30pm 17.8 17.2 11.8 68 3.3 SW 6 9 3 5 1019.2 - 0.0
17/02:00pm 18.2 17.6 12.2 68 3.3 SW 7 9 4 5 1019.4 - 0.0
17/01:30pm 18.0 17.5 12.0 68 3.3 SW 6 9 3 5 1019.5 - 0.0
17/01:00pm 17.5 18.1 11.8 69 3.1 CALM 0 6 0 3 1019.7 - 0.0
17/12:30pm 17.7 17.3 12.4 71 2.9 ESE 6 7 3 4 1020.0 - 0.0
17/12:00pm 16.5 15.7 11.2 71 2.9 ENE 6 7 3 4 1020.3 1020.2 0.0
17/11:30am 17.1 16.3 11.8 71 2.9 E 7 9 4 5 1020.4 - 0.0
17/11:00am 17.2 16.4 11.7 70 3.0 ESE 7 9 4 5 1020.5 - 0.0
17/10:30am 17.0 16.0 11.1 68 3.2 E 7 9 4 5 1020.6 - 0.0
17/10:00am 17.2 16.0 11.5 69 3.1 ESE 9 11 5 6 1020.6 - 0.0
17/09:30am 17.1 16.2 11.4 69 3.1 ESE 7 9 4 5 1020.7 - 0.0
17/09:00am 17.1 16.2 11.4 69 3.1 E 7 9 4 5 1020.8 1020.7 0.0
17/08:30am 17.3 16.6 11.3 68 3.3 ENE 6 9 3 5 1020.6 - 0.0
17/08:00am 17.2 16.0 11.7 70 3.0 NE 9 11 5 6 1020.4 - 0.0
17/07:30am 16.1 15.2 11.3 73 2.6 NNW 7 11 4 6 1020.2 - 0.0
17/07:00am 14.9 12.2 10.3 74 2.4 WNW 15 19 8 10 1020.0 - 0.0
17/06:30am 14.8 12.4 10.0 73 2.5 WNW 13 19 7 10 1019.7 - 0.0
17/06:00am 14.9 13.6 9.9 72 2.6 N 7 13 4 7 1019.6 1019.5 0.0
17/05:30am 15.0 12.5 9.8 71 2.7 NW 13 20 7 11 1019.3 - 0.0
17/05:00am 14.6 12.8 9.6 72 2.6 NNE 9 13 5 7 1019.4 - 0.0
17/04:30am 14.8 12.0 10.0 73 2.5 N 15 19 8 10 1019.4 - 0.0
17/04:00am 14.9 11.6 9.7 71 2.7 NNE 17 22 9 12 1019.1 - 0.0
17/03:30am 14.8 11.0 9.8 72 2.6 N 20 26 11 14 1018.8 - 0.0
17/03:00am 14.8 10.7 10.2 74 2.4 N 22 30 12 16 1018.7 1018.6 0.0
17/02:30am 14.7 11.3 11.1 79 1.9 N 20 28 11 15 1018.8 - 0.0
17/02:00am 14.9 11.1 11.1 78 2.0 N 22 32 12 17 1018.9 - 0.0
17/01:30am 15.0 11.3 11.4 79 1.9 N 22 30 12 16 1019.2 - 0.0
17/01:00am 15.1 11.8 11.5 79 1.9 NNE 20 35 11 19 1019.1 - 0.0
17/12:30am 14.9 11.6 11.7 81 1.7 NNE 20 32 11 17 1019.2 - 0.0
17/12:00am 14.9 10.9 11.7 81 1.7 NNE 24 35 13 19 1019.1 1019.0 0.0
 
Date/Time
EST
Temp
°C
App
Temp
°C
Dew
Point
Rel
Hum
%
Delta-T
°C
Wind Press
QNH
hPa
Press
MSL
hPa
Rain
since 9 am
mm
Dir
 
Spd
km/h
Gust
km/h
Spd
kts
Gust
kts
16/11:30pm 14.9 11.2 11.5 80 1.8 NNE 22 32 12 17 1019.4 - 0.0
16/11:00pm 15.0 11.7 11.6 80 1.8 NNE 20 30 11 16 1019.7 - 0.0
16/10:30pm 15.1 11.4 11.5 79 1.9 NNE 22 30 12 16 1019.8 - 0.0
16/10:00pm 15.1 11.0 11.5 79 1.9 NNE 24 32 13 17 1019.8 - 0.0
16/09:30pm 15.0 11.6 11.4 79 1.9 NNE 20 28 11 15 1020.0 - 0.0
16/09:00pm 15.1 11.3 11.3 78 2.0 NNE 22 32 12 17 1020.0 1019.9 0.0
16/08:30pm 15.0 11.2 11.0 77 2.1 NNE 22 30 12 16 1019.9 - 0.0
16/08:00pm 15.1 11.2 10.9 76 2.2 NNE 22 28 12 15 1019.9 - 0.0
16/07:30pm 15.0 11.5 11.0 77 2.1 NNE 20 26 11 14 1019.7 - 0.0
16/07:00pm 15.0 11.1 10.8 76 2.2 NNE 22 28 12 15 1019.8 - 0.0
16/06:30pm 15.1 11.3 11.1 77 2.1 NNE 22 30 12 16 1019.7 - 0.0
16/06:00pm 14.9 11.7 11.3 79 1.9 NNE 19 28 10 15 1019.3 1019.2 0.0
16/05:30pm 15.2 11.0 11.2 77 2.1 NE 24 28 13 15 1019.3 - 0.0
16/05:00pm 15.4 11.6 11.0 75 2.4 NE 22 28 12 15 1019.1 - 0.0
16/04:30pm 15.6 11.6 10.4 71 2.8 NE 22 28 12 15 1018.9 - 0.0
16/04:00pm 16.1 12.1 10.6 70 2.9 NE 22 28 12 15 1019.1 - 0.0
16/03:30pm 16.0 11.4 11.2 73 2.6 NE 26 32 14 17 1019.1 - 0.0
16/03:00pm 16.1 11.8 10.8 71 2.8 NE 24 30 13 16 1019.4 1019.3 0.0
16/02:30pm 16.0 10.9 10.7 71 2.8 NE 28 32 15 17 1019.3 - 0.0
16/02:00pm 16.2 11.6 10.9 71 2.8 ENE 26 30 14 16 1019.5 - 0.0
16/01:30pm 16.5 12.3 11.2 71 2.9 ENE 24 30 13 16 1019.6 - 0.0
16/01:00pm 16.4 11.7 10.7 69 3.0 ENE 26 32 14 17 1019.7 - 0.0
16/12:30pm 16.4 11.1 11.3 72 2.8 ENE 30 33 16 18 1019.9 - 0.0
16/12:00pm 16.1 10.3 10.8 71 2.8 ENE 32 37 17 20 1020.2 1020.1 0.0
16/11:30am 16.7 11.4 11.2 70 3.0 E 30 35 16 19 1020.7 - 0.0
16/11:00am 16.1 10.9 10.2 68 3.1 E 28 33 15 18 1021.0 - 0.0
16/10:30am 16.9 12.8 11.4 70 3.0 E 24 30 13 16 1021.3 - 0.0
16/10:00am 16.2 10.2 10.9 71 2.8 E 33 39 18 21 1021.2 - 0.0
16/09:30am 16.4 10.6 11.6 73 2.6 ENE 33 41 18 22 1021.2 - 0.0
16/09:00am 16.8 11.4 10.9 68 3.2 ENE 30 35 16 19 1021.4 1021.3 0.0
16/08:30am 16.4 10.9 10.5 68 3.1 ENE 30 35 16 19 1021.5 - 0.0
16/08:00am 16.1 11.2 10.0 67 3.2 ENE 26 33 14 18 1021.5 - 0.0
16/07:30am 15.9 11.3 9.8 67 3.2 E 24 30 13 16 1021.6 - 0.0
16/07:00am 15.2 10.6 9.8 70 2.8 E 24 30 13 16 1021.6 - 0.0
16/06:30am 15.1 10.1 9.5 69 2.9 ENE 26 30 14 16 1021.4 - 0.0
16/06:00am 15.0 10.3 9.1 68 3.0 E 24 30 13 16 1021.4 1021.3 0.0
16/05:30am 15.0 10.7 9.4 69 2.9 E 22 28 12 15 1021.4 - 0.0

Other Formats:

Comma delimited format used in spreadsheet applications
http://www.bom.gov.au/fwo/IDV60801/IDV60801.94893.axf

JavaScript Object Notation format (JSON) in row-major order
http://www.bom.gov.au/fwo/IDV60801/IDV60801.94893.json